createdAt,value
2024-04-22T00:00:24.388Z,100.00
2024-04-22T00:02:51.067Z,100.00
2024-04-22T00:05:17.841Z,100.00
2024-04-22T00:07:44.494Z,100.00
2024-04-22T00:10:11.190Z,100.00
2024-04-22T00:12:37.973Z,100.00
2024-04-22T00:15:05.100Z,100.00
2024-04-22T00:17:31.841Z,100.00
2024-04-22T00:19:59.758Z,100.00
2024-04-22T00:22:26.510Z,100.00
2024-04-22T00:24:53.205Z,100.00
2024-04-22T00:27:19.948Z,100.00
2024-04-22T00:29:46.637Z,100.00
2024-04-22T00:32:13.282Z,100.00
2024-04-22T00:34:40.226Z,100.00
2024-04-22T00:37:07.014Z,100.00
2024-04-22T00:39:33.716Z,100.00
2024-04-22T00:42:00.697Z,100.00
2024-04-22T00:44:27.502Z,100.00
2024-04-22T00:46:54.301Z,100.00
2024-04-22T00:49:21.793Z,100.00
2024-04-22T00:51:48.481Z,100.00
2024-04-22T00:54:16.194Z,100.00
2024-04-22T00:56:43.197Z,100.00
2024-04-22T00:59:09.992Z,100.00
2024-04-22T01:01:37.265Z,100.00
2024-04-22T01:04:04.652Z,100.00
2024-04-22T01:06:31.454Z,100.00
2024-04-22T01:08:58.082Z,100.00
2024-04-22T01:11:24.831Z,100.00
2024-04-22T01:13:51.662Z,100.00
2024-04-22T01:16:18.287Z,100.00
2024-04-22T01:18:45.476Z,100.00
2024-04-22T01:21:12.076Z,100.00
2024-04-22T01:23:39.150Z,100.00
2024-04-22T01:26:06.906Z,100.00
2024-04-22T01:28:33.544Z,100.00
2024-04-22T01:31:00.280Z,100.00
2024-04-22T01:33:27.060Z,100.00
2024-04-22T01:35:53.791Z,100.00
2024-04-22T01:38:20.464Z,100.00
2024-04-22T01:40:47.184Z,100.00
2024-04-22T01:43:14.219Z,100.00
2024-04-22T01:45:40.917Z,100.00
2024-04-22T01:48:07.898Z,100.00
2024-04-22T01:50:34.670Z,100.00
2024-04-22T01:53:01.324Z,100.00
2024-04-22T01:55:28.014Z,100.00
2024-04-22T01:57:54.689Z,100.00
2024-04-22T02:00:21.312Z,100.00
2024-04-22T02:02:48.126Z,100.00
2024-04-22T02:05:14.874Z,100.00
2024-04-22T02:07:41.633Z,100.00
2024-04-22T02:10:21.227Z,100.00
2024-04-22T02:12:50.595Z,100.00
2024-04-22T02:15:17.291Z,100.00
2024-04-22T02:17:43.979Z,100.00
2024-04-22T02:20:10.683Z,100.00
2024-04-22T02:22:37.466Z,100.00
2024-04-22T02:25:04.438Z,100.00
2024-04-22T02:27:31.099Z,100.00
2024-04-22T02:29:57.751Z,100.00
2024-04-22T02:32:24.436Z,100.00
2024-04-22T02:34:52.083Z,100.00
2024-04-22T02:37:18.840Z,100.00
2024-04-22T02:39:45.774Z,100.00
2024-04-22T02:42:12.390Z,100.00
2024-04-22T02:44:39.127Z,100.00
2024-04-22T02:47:06.144Z,100.00
2024-04-22T02:49:32.961Z,100.00
2024-04-22T02:51:59.635Z,100.00
2024-04-22T02:54:29.829Z,100.00
2024-04-22T02:56:56.647Z,100.00
2024-04-22T02:59:23.443Z,100.00
2024-04-22T03:01:51.481Z,100.00
2024-04-22T03:04:18.646Z,100.00
2024-04-22T03:06:45.424Z,100.00
2024-04-22T03:09:12.037Z,100.00
2024-04-22T03:11:38.706Z,100.00
2024-04-22T03:14:05.458Z,100.00
2024-04-22T03:16:32.182Z,100.00
2024-04-22T03:18:58.846Z,100.00
2024-04-22T03:21:26.010Z,100.00
2024-04-22T03:23:52.656Z,100.00
2024-04-22T03:26:19.276Z,100.00
2024-04-22T03:28:45.980Z,100.00
2024-04-22T03:31:12.690Z,100.00
2024-04-22T03:33:39.448Z,100.00
2024-04-22T03:36:06.698Z,100.00
2024-04-22T03:38:33.414Z,100.00
2024-04-22T03:41:00.024Z,100.00
2024-04-22T03:43:26.670Z,100.00
2024-04-22T03:46:11.815Z,100.00
2024-04-22T03:48:56.924Z,100.00
2024-04-22T03:51:23.579Z,100.00
2024-04-22T03:53:50.288Z,100.00
2024-04-22T03:56:17.132Z,100.00
2024-04-22T03:58:43.822Z,100.00
2024-04-22T04:01:10.635Z,100.00
2024-04-22T04:03:37.484Z,100.00
2024-04-22T04:06:04.464Z,100.00
2024-04-22T04:08:31.118Z,100.00
2024-04-22T04:11:02.190Z,100.00
2024-04-22T04:13:29.052Z,100.00
2024-04-22T04:15:55.744Z,100.00
2024-04-22T04:18:23.592Z,100.00
2024-04-22T04:20:50.271Z,100.00
2024-04-22T04:23:16.895Z,100.00
2024-04-22T04:25:43.548Z,100.00
2024-04-22T04:28:10.255Z,100.00
2024-04-22T04:30:36.958Z,100.00
2024-04-22T04:33:03.803Z,100.00
2024-04-22T04:35:30.436Z,100.00
2024-04-22T04:37:57.084Z,100.00
2024-04-22T04:40:24.448Z,100.00
2024-04-22T04:42:51.089Z,100.00
2024-04-22T04:45:17.732Z,100.00
2024-04-22T04:47:44.490Z,100.00
2024-04-22T04:50:11.246Z,100.00
2024-04-22T04:52:37.936Z,100.00
2024-04-22T04:55:04.926Z,100.00
2024-04-22T04:57:31.540Z,100.00
2024-04-22T04:59:58.140Z,100.00
2024-04-22T05:02:24.873Z,100.00
2024-04-22T05:04:51.572Z,100.00
2024-04-22T05:07:18.262Z,100.00
2024-04-22T05:09:44.917Z,100.00
2024-04-22T05:12:11.582Z,100.00
2024-04-22T05:14:38.194Z,100.00
2024-04-22T05:17:04.870Z,100.00
2024-04-22T05:19:31.632Z,100.00
2024-04-22T05:21:58.304Z,100.00
2024-04-22T05:24:27.986Z,100.00
2024-04-22T05:26:56.471Z,100.00
2024-04-22T05:29:23.187Z,100.00
2024-04-22T05:31:49.941Z,100.00
2024-04-22T05:34:36.180Z,100.00
2024-04-22T05:37:03.882Z,100.00
2024-04-22T05:39:30.644Z,100.00
2024-04-22T05:41:57.272Z,100.00
2024-04-22T05:44:24.024Z,100.00
2024-04-22T05:46:50.723Z,100.00
2024-04-22T05:49:17.543Z,100.00
2024-04-22T05:51:44.174Z,100.00
2024-04-22T05:54:10.922Z,100.00
2024-04-22T05:56:37.900Z,100.00
2024-04-22T05:59:06.233Z,100.00
2024-04-22T06:01:33.233Z,100.00
2024-04-22T06:04:00.012Z,100.00
2024-04-22T06:06:26.703Z,100.00
2024-04-22T06:08:53.341Z,100.00
2024-04-22T06:11:20.155Z,100.00
2024-04-22T06:13:46.826Z,100.00
2024-04-22T06:16:13.748Z,100.00
2024-04-22T06:18:40.417Z,100.00
2024-04-22T06:21:07.099Z,100.00
2024-04-22T06:23:34.043Z,100.00
2024-04-22T06:26:07.690Z,100.00
2024-04-22T06:28:34.739Z,100.00
2024-04-22T06:31:01.491Z,100.00
2024-04-22T06:33:29.175Z,100.00
2024-04-22T06:35:56.228Z,100.00
2024-04-22T06:38:23.329Z,100.00
2024-04-22T06:40:50.081Z,100.00
2024-04-22T06:43:18.190Z,100.00
2024-04-22T06:45:45.334Z,100.00
2024-04-22T06:48:12.181Z,100.00
2024-04-22T06:50:42.949Z,100.00
2024-04-22T06:53:09.754Z,100.00
2024-04-22T06:55:36.477Z,100.00
2024-04-22T06:58:03.415Z,100.00
2024-04-22T07:00:33.459Z,100.00
2024-04-22T07:03:00.360Z,100.00
2024-04-22T07:05:27.052Z,100.00
2024-04-22T07:07:53.659Z,100.00
2024-04-22T07:10:21.960Z,100.00
2024-04-22T07:12:48.818Z,100.00
2024-04-22T07:15:15.516Z,100.00
2024-04-22T07:17:42.236Z,100.00
2024-04-22T07:20:09.013Z,100.00
2024-04-22T07:22:39.556Z,100.00
2024-04-22T07:25:09.073Z,100.00
2024-04-22T07:27:35.950Z,100.00
2024-04-22T07:30:04.687Z,100.00
2024-04-22T07:32:31.815Z,100.00
2024-04-22T07:34:58.818Z,100.00
2024-04-22T07:37:34.159Z,100.00
2024-04-22T07:40:03.993Z,100.00
2024-04-22T07:42:30.634Z,100.00
2024-04-22T07:44:57.307Z,100.00
2024-04-22T07:47:23.976Z,100.00
2024-04-22T07:49:50.668Z,100.00
2024-04-22T07:52:17.702Z,100.00
2024-04-22T07:54:44.647Z,100.00
2024-04-22T07:57:11.546Z,100.00
2024-04-22T07:59:38.408Z,100.00
2024-04-22T08:02:05.422Z,100.00
2024-04-22T08:04:32.449Z,100.00
2024-04-22T08:07:04.014Z,100.00
2024-04-22T08:09:31.609Z,100.00
2024-04-22T08:11:58.936Z,100.00
2024-04-22T08:14:25.573Z,100.00
2024-04-22T08:16:52.403Z,100.00
2024-04-22T08:19:19.126Z,100.00
2024-04-22T08:21:46.401Z,100.00
2024-04-22T08:24:13.084Z,100.00
2024-04-22T08:26:39.744Z,97.78
2024-04-22T08:29:06.403Z,98.79
2024-04-22T08:31:35.411Z,100.00
2024-04-22T08:34:02.233Z,98.61
2024-04-22T08:36:28.838Z,97.33
2024-04-22T08:38:55.516Z,96.24
2024-04-22T08:41:22.699Z,96.02
2024-04-22T08:43:50.004Z,95.76
2024-04-22T08:46:19.006Z,94.85
2024-04-22T08:48:45.719Z,93.11
2024-04-22T08:51:12.916Z,91.95
2024-04-22T08:53:39.574Z,93.03
2024-04-22T08:56:07.157Z,92.02
2024-04-22T08:58:33.856Z,91.04
2024-04-22T09:01:04.998Z,89.71
2024-04-22T09:03:31.692Z,91.02
2024-04-22T09:05:58.483Z,88.89
2024-04-22T09:08:25.267Z,86.70
2024-04-22T09:13:31.192Z,81.70
2024-04-22T09:15:58.112Z,83.18
2024-04-22T09:18:30.062Z,84.82
2024-04-22T09:21:11.352Z,83.57
2024-04-22T09:23:38.857Z,81.08
2024-04-22T09:26:06.894Z,80.24
2024-04-22T09:28:39.081Z,82.94
2024-04-22T09:31:06.672Z,82.52
2024-04-22T09:33:37.902Z,84.64
2024-04-22T09:36:06.669Z,88.71
2024-04-22T09:38:46.160Z,91.01
2024-04-22T09:41:15.478Z,94.73
2024-04-22T09:43:49.612Z,95.45
2024-04-22T09:46:20.519Z,96.49
2024-04-22T09:48:48.818Z,94.95
2024-04-22T09:51:15.839Z,98.43
2024-04-22T09:53:42.810Z,100.00
2024-04-22T09:56:12.729Z,100.00
2024-04-22T09:58:41.625Z,100.00
2024-04-22T10:01:08.896Z,100.00
2024-04-22T10:03:36.889Z,99.54
2024-04-22T10:06:06.405Z,98.47
2024-04-22T10:08:34.628Z,97.74
2024-04-22T10:11:09.844Z,97.57
2024-04-22T10:13:37.436Z,99.09
2024-04-22T10:16:05.967Z,98.82
2024-04-22T10:18:32.809Z,99.59
2024-04-22T10:21:04.002Z,100.00
2024-04-22T10:23:30.857Z,100.00
2024-04-22T10:25:57.936Z,98.44
2024-04-22T10:28:24.681Z,89.30
2024-04-22T10:30:51.410Z,85.76
2024-04-22T10:33:18.214Z,88.71
2024-04-22T10:35:44.989Z,87.75
2024-04-22T10:38:11.644Z,86.39
2024-04-22T10:40:38.427Z,83.57
2024-04-22T10:43:05.318Z,81.78
2024-04-22T10:45:33.085Z,75.83
2024-04-22T10:48:08.648Z,80.67
2024-04-22T10:50:44.829Z,78.11
2024-04-22T10:53:11.561Z,77.23
2024-04-22T10:55:38.446Z,75.64
2024-04-22T10:58:05.653Z,73.75
2024-04-22T11:00:33.167Z,70.95
2024-04-22T11:03:00.493Z,72.77
2024-04-22T11:05:28.589Z,73.80
2024-04-22T11:07:55.480Z,73.54
2024-04-22T11:10:31.018Z,73.34
2024-04-22T11:13:01.832Z,73.01
2024-04-22T11:15:28.531Z,72.13
2024-04-22T11:18:05.099Z,70.26
2024-04-22T11:20:32.924Z,70.57
2024-04-22T11:22:59.740Z,72.18
2024-04-22T11:25:26.513Z,72.17
2024-04-22T11:27:53.303Z,69.02
2024-04-22T11:30:20.202Z,68.84
2024-04-22T11:32:46.906Z,66.97
2024-04-22T11:35:13.819Z,66.08
2024-04-22T11:37:41.272Z,66.64
2024-04-22T11:40:10.169Z,66.59
2024-04-22T11:42:36.863Z,68.19
2024-04-22T11:45:06.489Z,64.45
2024-04-22T11:47:33.702Z,63.86
2024-04-22T11:50:00.459Z,67.21
2024-04-22T11:52:27.216Z,68.41
2024-04-22T11:54:53.872Z,65.69
2024-04-22T11:57:20.495Z,65.92
2024-04-22T11:59:47.208Z,65.46
2024-04-22T12:02:18.050Z,68.25
2024-04-22T12:04:45.874Z,68.87
2024-04-22T12:07:12.773Z,70.56
2024-04-22T12:09:39.409Z,72.26
2024-04-22T12:12:06.526Z,68.61
2024-04-22T12:14:33.178Z,63.70
2024-04-22T12:16:59.978Z,60.57
2024-04-22T12:19:26.883Z,61.33
2024-04-22T12:21:53.722Z,61.05
2024-04-22T12:24:20.377Z,61.69
2024-04-22T12:26:47.020Z,59.52
2024-04-22T12:29:13.636Z,60.99
2024-04-22T12:31:40.549Z,62.02
2024-04-22T12:34:12.653Z,58.98
2024-04-22T12:36:41.120Z,59.06
2024-04-22T12:39:07.766Z,58.31
2024-04-22T12:41:34.467Z,60.10
2024-04-22T12:44:04.046Z,54.11
2024-04-22T12:46:57.422Z,55.76
2024-04-22T12:49:42.768Z,55.92
2024-04-22T12:52:10.244Z,56.59
2024-04-22T12:54:36.937Z,56.74
2024-04-22T12:57:03.824Z,57.80
2024-04-22T12:59:30.617Z,55.98
2024-04-22T13:01:57.609Z,53.47
2024-04-22T13:04:24.572Z,55.09
2024-04-22T13:06:51.380Z,58.52
2024-04-22T13:09:18.366Z,56.85
2024-04-22T13:11:45.771Z,50.76
2024-04-22T13:14:12.460Z,52.49
2024-04-22T13:16:39.104Z,52.46
2024-04-22T13:19:07.786Z,49.36
2024-04-22T13:21:34.937Z,50.30
2024-04-22T13:24:01.872Z,51.40
2024-04-22T13:26:28.607Z,52.75
2024-04-22T13:28:55.244Z,49.78
2024-04-22T13:31:23.044Z,46.08
2024-04-22T13:33:54.763Z,49.75
2024-04-22T13:36:21.453Z,48.22
2024-04-22T13:38:48.359Z,50.83
2024-04-22T13:41:15.162Z,49.80
2024-04-22T13:43:41.928Z,49.71
2024-04-22T13:46:08.824Z,49.99
2024-04-22T13:48:35.495Z,46.46
2024-04-22T13:51:02.483Z,47.83
2024-04-22T13:53:32.089Z,46.05
2024-04-22T13:55:59.758Z,42.53
2024-04-22T13:58:26.688Z,45.62
2024-04-22T14:00:53.532Z,44.18
2024-04-22T14:03:20.275Z,45.25
2024-04-22T14:05:46.931Z,43.39
2024-04-22T14:08:13.558Z,44.22
2024-04-22T14:10:40.439Z,46.14
2024-04-22T14:13:07.122Z,45.65
2024-04-22T14:15:44.702Z,45.18
2024-04-22T14:18:14.586Z,45.88
2024-04-22T14:20:41.956Z,46.17
2024-04-22T14:23:08.564Z,45.77
2024-04-22T14:25:35.902Z,47.09
2024-04-22T14:28:02.722Z,45.41
2024-04-22T14:30:29.395Z,45.02
2024-04-22T14:32:56.229Z,45.33
2024-04-22T14:35:22.943Z,48.19
2024-04-22T14:37:49.737Z,50.86
2024-04-22T14:40:16.588Z,51.84
2024-04-22T14:42:43.247Z,52.31
2024-04-22T14:45:09.983Z,55.36
2024-04-22T14:47:36.722Z,54.48
2024-04-22T14:50:03.489Z,54.16
2024-04-22T14:52:30.252Z,55.33
2024-04-22T14:54:56.964Z,53.91
2024-04-22T14:57:25.194Z,52.70
2024-04-22T14:59:51.886Z,53.29
2024-04-22T15:02:18.636Z,52.24
2024-04-22T15:04:45.523Z,53.84
2024-04-22T15:07:13.190Z,53.19
2024-04-22T15:09:43.056Z,52.65
2024-04-22T15:12:10.169Z,53.98
2024-04-22T15:14:36.846Z,53.76
2024-04-22T15:17:03.636Z,52.64
2024-04-22T15:19:30.458Z,51.63
2024-04-22T15:21:57.409Z,48.75
2024-04-22T15:24:24.309Z,48.43
2024-04-22T15:26:51.009Z,49.59
2024-04-22T15:29:17.881Z,50.38
2024-04-22T15:31:44.565Z,49.17
2024-04-22T15:34:11.332Z,49.34
2024-04-22T15:36:38.221Z,47.37
2024-04-22T15:39:08.364Z,47.81
2024-04-22T15:41:35.464Z,48.23
2024-04-22T15:44:03.490Z,48.98
2024-04-22T15:46:31.262Z,47.97
2024-04-22T15:48:58.053Z,48.64
2024-04-22T15:51:24.920Z,49.70
2024-04-22T15:53:51.890Z,49.36
2024-04-22T15:56:18.990Z,48.69
2024-04-22T15:58:45.885Z,48.27
2024-04-22T16:01:12.661Z,47.58
2024-04-22T16:03:39.537Z,46.98
2024-04-22T16:06:06.573Z,48.14
2024-04-22T16:08:33.357Z,48.91
2024-04-22T16:11:00.057Z,50.06
2024-04-22T16:13:26.863Z,50.49
2024-04-22T16:15:53.604Z,48.59
2024-04-22T16:18:20.411Z,47.03
2024-04-22T16:20:56.514Z,45.96
2024-04-22T16:23:31.706Z,47.32
2024-04-22T16:26:00.346Z,45.48
2024-04-22T16:28:27.197Z,48.22
2024-04-22T16:30:53.946Z,46.62
2024-04-22T16:33:20.684Z,47.72
2024-04-22T16:35:47.311Z,45.99
2024-04-22T16:38:13.943Z,45.83
2024-04-22T16:40:40.616Z,45.66
2024-04-22T16:43:08.914Z,45.48
2024-04-22T16:45:35.551Z,46.61
2024-04-22T16:48:02.431Z,46.88
2024-04-22T16:50:29.291Z,47.14
2024-04-22T16:52:56.045Z,44.71
2024-04-22T16:55:22.768Z,45.97
2024-04-22T16:57:49.460Z,47.45
2024-04-22T17:00:16.268Z,46.52
2024-04-22T17:02:43.077Z,45.97
2024-04-22T17:05:09.800Z,46.58
2024-04-22T17:07:36.900Z,46.60
2024-04-22T17:10:08.076Z,45.73
2024-04-22T17:12:34.722Z,45.40
2024-04-22T17:15:02.035Z,46.01
2024-04-22T17:17:28.878Z,45.72
2024-04-22T17:19:55.572Z,44.20
2024-04-22T17:22:22.248Z,45.79
2024-04-22T17:24:51.824Z,46.17
2024-04-22T17:27:21.742Z,45.97
2024-04-22T17:29:48.553Z,46.71
2024-04-22T17:32:15.870Z,45.37
2024-04-22T17:34:42.671Z,44.70
2024-04-22T17:37:12.409Z,45.57
2024-04-22T17:39:42.161Z,45.87
2024-04-22T17:42:10.144Z,47.19
2024-04-22T17:44:36.929Z,46.19
2024-04-22T17:47:04.955Z,46.35
2024-04-22T17:49:33.616Z,47.42
2024-04-22T17:52:00.292Z,46.51
2024-04-22T17:54:27.697Z,47.89
2024-04-22T17:56:59.763Z,47.86
2024-04-22T17:59:32.102Z,46.82
2024-04-22T18:01:58.742Z,42.98
2024-04-22T18:04:27.059Z,44.35
2024-04-22T18:06:53.936Z,44.29
2024-04-22T18:09:20.635Z,45.41
2024-04-22T18:11:47.452Z,46.87
2024-04-22T18:14:14.215Z,47.11
2024-04-22T18:16:42.358Z,48.09
2024-04-22T18:19:09.238Z,47.83
2024-04-22T18:21:36.017Z,48.74
2024-04-22T18:24:05.980Z,48.78
2024-04-22T18:26:34.455Z,49.69
2024-04-22T18:29:01.578Z,49.79
2024-04-22T18:31:28.241Z,50.66
2024-04-22T18:33:54.891Z,51.64
2024-04-22T18:36:21.518Z,51.45
2024-04-22T18:38:49.073Z,51.37
2024-04-22T18:41:15.968Z,52.30
2024-04-22T18:43:42.756Z,52.08
2024-04-22T18:46:09.704Z,52.85
2024-04-22T18:48:36.495Z,52.80
2024-04-22T18:51:03.313Z,53.78
2024-04-22T18:53:30.241Z,53.68
2024-04-22T18:55:57.288Z,54.76
2024-04-22T18:58:29.167Z,55.07
2024-04-22T19:00:56.244Z,54.39
2024-04-22T19:03:23.003Z,54.58
2024-04-22T19:05:49.667Z,54.67
2024-04-22T19:08:16.361Z,54.56
2024-04-22T19:10:43.213Z,54.62
2024-04-22T19:13:10.084Z,55.33
2024-04-22T19:15:36.868Z,55.37
2024-04-22T19:18:03.810Z,55.21
2024-04-22T19:20:30.626Z,55.75
2024-04-22T19:22:57.310Z,56.17
2024-04-22T19:25:24.128Z,55.89
2024-04-22T19:27:52.283Z,56.13
2024-04-22T19:30:19.363Z,56.69
2024-04-22T19:32:46.402Z,56.89
2024-04-22T19:35:13.342Z,57.27
2024-04-22T19:37:40.928Z,56.70
2024-04-22T19:40:08.191Z,56.90
2024-04-22T19:42:34.944Z,56.99
2024-04-22T19:45:03.805Z,56.96
2024-04-22T19:47:31.099Z,58.13
2024-04-22T19:49:58.150Z,57.57
2024-04-22T19:52:24.904Z,58.99
2024-04-22T19:54:54.639Z,58.74
2024-04-22T19:57:23.108Z,58.82
2024-04-22T19:59:50.488Z,58.48
2024-04-22T20:02:17.254Z,59.73
2024-04-22T20:04:45.109Z,59.45
2024-04-22T20:07:11.908Z,59.89
2024-04-22T20:09:38.676Z,60.19
2024-04-22T20:12:05.967Z,59.90
2024-04-22T20:14:32.652Z,60.57
2024-04-22T20:16:59.307Z,61.21
2024-04-22T20:19:26.961Z,61.48
2024-04-22T20:21:53.598Z,61.25
2024-04-22T20:24:20.236Z,62.21
2024-04-22T20:26:46.911Z,61.43
2024-04-22T20:29:15.647Z,62.30
2024-04-22T20:31:42.483Z,62.51
2024-04-22T20:34:09.302Z,63.30
2024-04-22T20:36:35.986Z,63.50
2024-04-22T20:39:02.619Z,63.80
2024-04-22T20:41:29.798Z,64.22
2024-04-22T20:43:56.973Z,64.58
2024-04-22T20:46:23.712Z,65.03
2024-04-22T20:48:50.392Z,65.84
2024-04-22T20:51:17.734Z,66.29
2024-04-22T20:53:44.435Z,65.64
2024-04-22T20:56:11.078Z,66.27
2024-04-22T20:58:37.815Z,67.18
2024-04-22T21:01:08.683Z,67.68
2024-04-22T21:03:36.074Z,67.74
2024-04-22T21:06:04.717Z,67.46
2024-04-22T21:08:31.947Z,68.41
2024-04-22T21:11:01.135Z,67.87
2024-04-22T21:13:30.079Z,67.44
2024-04-22T21:15:56.771Z,68.28
2024-04-22T21:18:23.449Z,68.66
2024-04-22T21:20:50.480Z,69.01
2024-04-22T21:23:17.274Z,69.22
2024-04-22T21:25:44.011Z,69.35
2024-04-22T21:28:10.780Z,70.92
2024-04-22T21:30:37.434Z,70.59
2024-04-22T21:33:18.121Z,71.27
2024-04-22T21:35:51.379Z,71.65
2024-04-22T21:38:18.041Z,72.39
2024-04-22T21:40:45.914Z,72.87
2024-04-22T21:43:12.616Z,73.04
2024-04-22T21:45:39.520Z,73.99
2024-04-22T21:48:06.629Z,74.65
2024-04-22T21:50:33.262Z,74.54
2024-04-22T21:52:59.916Z,75.08
2024-04-22T21:55:32.794Z,75.95
2024-04-22T21:58:37.064Z,76.14
2024-04-22T22:01:41.529Z,76.21
2024-04-22T22:04:45.702Z,76.27
2024-04-22T22:07:16.574Z,76.55
2024-04-22T22:09:44.327Z,77.05
2024-04-22T22:12:10.966Z,77.35
2024-04-22T22:14:37.595Z,77.18
2024-04-22T22:17:04.382Z,77.64
2024-04-22T22:19:32.090Z,78.38
2024-04-22T22:21:58.822Z,78.38
2024-04-22T22:24:25.431Z,78.68
2024-04-22T22:26:52.090Z,78.65
2024-04-22T22:29:18.763Z,78.54
2024-04-22T22:31:45.378Z,79.40
2024-04-22T22:34:12.265Z,79.37
2024-04-22T22:36:38.880Z,79.89
2024-04-22T22:39:05.491Z,79.78
2024-04-22T22:41:32.113Z,79.63
2024-04-22T22:43:58.789Z,79.55
2024-04-22T22:46:25.449Z,80.13
2024-04-22T22:48:52.076Z,80.53
2024-04-22T22:51:18.715Z,80.92
2024-04-22T22:53:45.395Z,80.53
2024-04-22T22:56:12.026Z,81.54
2024-04-22T22:58:38.658Z,81.38
2024-04-22T23:01:05.449Z,82.45
2024-04-22T23:03:32.114Z,82.70
2024-04-22T23:05:58.751Z,83.11
2024-04-22T23:08:25.342Z,83.16
2024-04-22T23:10:52.157Z,83.10
2024-04-22T23:13:18.911Z,83.64
2024-04-22T23:15:45.511Z,84.37
2024-04-22T23:18:12.155Z,84.80
2024-04-22T23:20:38.792Z,84.71
2024-04-22T23:23:05.502Z,85.30
2024-04-22T23:25:32.194Z,85.67
2024-04-22T23:27:58.871Z,85.49
2024-04-22T23:30:25.529Z,85.63
2024-04-22T23:32:52.205Z,85.90
2024-04-22T23:35:18.934Z,86.12
2024-04-22T23:37:45.623Z,85.64
2024-04-22T23:40:12.323Z,85.73
2024-04-22T23:42:38.956Z,85.75
2024-04-22T23:45:05.880Z,86.53
2024-04-22T23:47:32.618Z,86.53
2024-04-22T23:49:59.389Z,87.09
2024-04-22T23:52:26.138Z,87.38
2024-04-22T23:54:52.759Z,87.75
2024-04-22T23:57:19.386Z,88.13
2024-04-22T23:59:46.037Z,88.76
